Weather at Marshalltown Municipal Airport

Public forecast

Using degrees Fahrenheit for public forecast. Weather courtesy of forecast.io.

Current aviation weather report (METAR) for Marshalltown Municipal Airport

Retrieved 2021/09/16 16:53 UTC (1 hour ago):

KMIW 161653Z AUTO 18011G22KT 10SM CLR 26/14 A2997 RMK AO2 PK WND 18026/1614 SLP143 T02610139

Closest aviation forecast (TAF) to Marshalltown Municipal Airport

Closest forecast is Waterloo Regional Airport, 35.2 nm (65.2 km) NE. Retrieved 2021/09/16 12:22 UTC (6 hours ago):

TAF KALO 161120Z 1612/1712 16009KT P6SM SKC FM161500 17012G22KT P6SM SKC FM170600 17010KT P6SM SKC